Time;durP1;ratioP1;P1;durP2;ratioP2;P2;SDS_P1;SDS_P2;PMS_P1;PMS_P2;Temp;Humidity;BMP_temperature;BMP_pressure;BME280_temperature;BME280_humidity;BME280_pressure;Samples;Min_cycle;Max_cycle;Signal;HPM_P1;HPM_P2
2021/01/19 00:00:05;;;;;;;5.55;3.40;;;;;;;-1.56;94.44;96514.75;1020608;29;20012;-76
2021/01/19 00:00:35;;;;;;;4.00;3.60;;;;;;;-1.61;94.22;96519.69;1020972;28;20588;-75
2021/01/19 00:01:06;;;;;;;6.07;3.22;;;;;;;-1.60;94.26;96513.53;1028845;28;20612;-72
2021/01/19 00:01:36;;;;;;;7.43;3.35;;;;;;;-1.61;94.57;96517.88;1024794;28;20058;-73
2021/01/19 00:02:06;;;;;;;5.40;3.33;;;;;;;-1.64;94.40;96504.50;1024476;29;20082;-76
2021/01/19 00:02:37;;;;;;;6.07;3.28;;;;;;;-1.58;94.48;96508.94;1020589;29;20016;-75
2021/01/19 00:03:08;;;;;;;6.43;3.33;;;;;;;-1.62;94.43;96508.50;1020683;29;20533;-75
2021/01/19 00:03:38;;;;;;;6.45;3.60;;;;;;;-1.68;94.48;96511.03;1020585;29;20030;-76
2021/01/19 00:04:10;;;;;;;5.03;3.33;;;;;;;-1.62;94.39;96511.09;1020337;29;20073;-73
2021/01/19 00:04:40;;;;;;;5.60;3.30;;;;;;;-1.61;94.15;96504.09;1020486;29;20047;-71
2021/01/19 00:05:11;;;;;;;5.63;3.47;;;;;;;-1.61;94.20;96517.09;1016575;29;20276;-74
2021/01/19 00:05:42;;;;;;;6.18;3.63;;;;;;;-1.61;94.48;96504.09;1017264;29;20030;-76
2021/01/19 00:06:12;;;;;;;4.35;3.33;;;;;;;-1.60;93.92;96505.72;1020627;29;20027;-73
2021/01/19 00:06:44;;;;;;;5.60;3.53;;;;;;;-1.64;94.41;96504.50;1020656;29;20389;-72
2021/01/19 00:07:14;;;;;;;3.85;2.88;;;;;;;-1.63;94.62;96506.09;1020546;29;20071;-74
2021/01/19 00:07:45;;;;;;;7.45;3.45;;;;;;;-1.65;94.85;96511.44;1020719;29;20271;-74
2021/01/19 00:08:15;;;;;;;6.35;3.53;;;;;;;-1.64;94.63;96504.50;1024942;28;20019;-72
2021/01/19 00:08:46;;;;;;;5.35;3.42;;;;;;;-1.66;94.44;96509.84;1032561;28;20026;-74
2021/01/19 00:09:16;;;;;;;4.47;3.20;;;;;;;-1.68;95.20;96511.03;1036787;28;20332;-72
2021/01/19 00:09:47;;;;;;;4.40;3.38;;;;;;;-1.70;94.82;96505.22;1028418;28;20046;-75
2021/01/19 00:10:17;;;;;;;5.35;3.50;;;;;;;-1.73;94.25;96506.38;1028421;28;20460;-74
2021/01/19 00:10:48;;;;;;;4.20;3.55;;;;;;;-1.71;94.30;96507.00;1028459;28;20030;-74
2021/01/19 00:11:18;;;;;;;5.10;3.60;;;;;;;-1.78;94.64;96510.50;1024595;28;20491;-75
2021/01/19 00:11:49;;;;;;;5.38;3.47;;;;;;;-1.72;94.42;96508.00;1028430;28;20023;-74
2021/01/19 00:12:19;;;;;;;3.78;3.25;;;;;;;-1.75;94.87;96505.75;1028414;28;20026;-76
2021/01/19 00:12:50;;;;;;;3.97;3.00;;;;;;;-1.79;94.88;96504.53;1028492;28;20026;-74
2021/01/19 00:13:20;;;;;;;4.82;3.90;;;;;;;-1.76;94.65;96498.16;1028472;28;20030;-72
2021/01/19 00:13:51;;;;;;;5.63;3.08;;;;;;;-1.84;94.91;96491.31;1032614;28;20034;-71
2021/01/19 00:14:21;;;;;;;4.55;2.92;;;;;;;-1.85;94.53;96498.25;1020365;29;20145;-75
2021/01/19 00:14:54;;;;;;;7.32;3.38;;;;;;;-1.88;94.68;96503.03;1016670;29;20032;-74
2021/01/19 00:15:24;;;;;;;3.90;2.95;;;;;;;-1.87;94.66;96495.03;1016546;29;20024;-75
2021/01/19 00:15:54;;;;;;;4.30;3.63;;;;;;;-1.93;94.87;96497.56;1017287;29;20335;-72
2021/01/19 00:16:25;;;;;;;3.90;3.10;;;;;;;-1.92;94.87;96492.22;1024755;28;20027;-75
2021/01/19 00:16:55;;;;;;;5.90;3.58;;;;;;;-1.96;94.57;96492.75;1024751;28;20027;-75
2021/01/19 00:17:26;;;;;;;4.07;3.03;;;;;;;-1.98;94.89;96498.13;1028466;28;20049;-74
2021/01/19 00:17:56;;;;;;;5.07;3.50;;;;;;;-2.03;95.21;96488.28;1032330;28;20042;-73
2021/01/19 00:18:27;;;;;;;3.80;3.40;;;;;;;-2.02;94.76;96496.88;1032600;28;20435;-73
2021/01/19 00:18:57;;;;;;;3.13;2.83;;;;;;;-2.04;95.10;96499.66;1032462;28;20030;-76
2021/01/19 00:19:28;;;;;;;4.45;3.20;;;;;;;-2.13;94.93;96479.19;1028193;28;20074;-72
2021/01/19 00:19:58;;;;;;;4.53;3.42;;;;;;;-2.10;95.16;96496.97;1028423;28;20384;-74
2021/01/19 00:20:29;;;;;;;6.13;3.20;;;;;;;-2.10;95.55;96499.56;1028442;28;20069;-74
2021/01/19 00:20:59;;;;;;;4.43;2.65;;;;;;;-2.14;95.51;96480.97;1028504;28;20114;-74
2021/01/19 00:21:30;;;;;;;3.95;3.10;;;;;;;-2.11;95.46;96490.97;1028286;28;20042;-77
2021/01/19 00:22:00;;;;;;;4.32;3.00;;;;;;;-2.19;95.53;96493.69;1028385;28;20025;-74
2021/01/19 00:22:32;;;;;;;5.43;3.35;;;;;;;-2.17;95.54;96490.91;1028478;28;20166;-74
2021/01/19 00:23:03;;;;;;;6.00;3.65;;;;;;;-2.16;95.84;96488.13;1032691;28;20072;-74
2021/01/19 00:23:33;;;;;;;5.15;3.47;;;;;;;-2.14;95.67;96487.94;1036788;28;20767;-74
2021/01/19 00:24:04;;;;;;;7.55;2.78;;;;;;;-2.17;95.72;96496.09;1036778;28;20018;-76
2021/01/19 00:24:34;;;;;;;4.63;2.90;;;;;;;-2.16;95.33;96488.13;1028490;28;20075;-76
2021/01/19 00:25:05;;;;;;;4.47;3.10;;;;;;;-2.16;95.05;96487.31;1024309;29;20448;-76
2021/01/19 00:25:36;;;;;;;4.50;3.20;;;;;;;-2.21;95.48;96491.25;1024435;29;20016;-77
2021/01/19 00:26:07;;;;;;;4.38;3.03;;;;;;;-2.23;95.29;96485.44;1021096;28;20276;-71
2021/01/19 00:26:40;;;;;;;3.75;2.88;;;;;;;-2.21;95.15;96491.25;1028575;28;20671;-73
2021/01/19 00:27:11;;;;;;;5.47;3.15;;;;;;;-2.19;95.19;96480.72;1032507;28;20502;-74
2021/01/19 00:27:41;;;;;;;3.67;2.75;;;;;;;-2.22;95.05;96483.66;1024816;28;20266;-74
2021/01/19 00:28:12;;;;;;;5.18;2.70;;;;;;;-2.18;95.58;96481.50;1028599;28;20030;-75
2021/01/19 00:28:42;;;;;;;4.43;2.63;;;;;;;-2.15;95.53;96481.16;1028336;28;20077;-76
2021/01/19 00:29:14;;;;;;;5.53;3.00;;;;;;;-2.13;95.21;96476.59;1028583;28;20022;-76
2021/01/19 00:29:44;;;;;;;6.63;2.88;;;;;;;-2.15;94.99;96473.38;1036699;28;20032;-72
2021/01/19 00:30:16;;;;;;;6.97;2.90;;;;;;;-2.16;95.02;96479.53;1027972;28;20269;-74
2021/01/19 00:30:46;;;;;;;3.47;2.60;;;;;;;-2.22;94.71;96470.69;1028384;28;20031;-73
2021/01/19 00:31:17;;;;;;;5.65;3.38;;;;;;;-2.18;95.02;96477.16;1028382;28;20011;-75
2021/01/19 00:31:47;;;;;;;6.78;3.10;;;;;;;-2.22;95.03;96471.50;1020857;28;20020;-75
2021/01/19 00:32:18;;;;;;;5.18;2.88;;;;;;;-2.23;94.92;96472.50;1028392;28;20019;-73
2021/01/19 00:32:48;;;;;;;4.55;2.83;;;;;;;-2.23;95.01;96467.31;1024460;29;20023;-74
2021/01/19 00:33:19;;;;;;;3.80;2.53;;;;;;;-2.25;95.10;96471.88;1024491;28;20023;-74
2021/01/19 00:33:49;;;;;;;3.78;2.78;;;;;;;-2.31;95.00;96472.59;1031989;28;20121;-75
2021/01/19 00:34:20;;;;;;;3.70;2.75;;;;;;;-2.31;94.96;96474.38;1028285;28;20543;-74
2021/01/19 00:34:50;;;;;;;5.43;3.25;;;;;;;-2.35;95.17;96471.34;1032460;28;20023;-73
2021/01/19 00:35:21;;;;;;;3.60;2.58;;;;;;;-2.31;95.34;96475.19;1032433;28;20483;-74
2021/01/19 00:35:53;;;;;;;3.63;2.85;;;;;;;-2.35;95.15;96468.75;1028490;28;20027;-72
2021/01/19 00:36:25;;;;;;;4.65;2.75;;;;;;;-2.36;95.35;96468.91;1028507;28;20357;-73
2021/01/19 00:36:56;;;;;;;4.45;3.10;;;;;;;-2.34;95.81;96474.72;1029057;28;20291;-77
2021/01/19 00:37:26;;;;;;;5.18;3.28;;;;;;;-2.31;95.78;96472.59;1028913;28;20035;-75
2021/01/19 00:37:59;;;;;;;4.18;2.75;;;;;;;-2.38;95.34;96471.69;1032567;28;20611;-74
2021/01/19 00:38:29;;;;;;;3.47;2.83;;;;;;;-2.39;95.62;96470.09;1024373;29;20031;-76
2021/01/19 00:39:00;;;;;;;3.58;2.75;;;;;;;-2.40;95.62;96474.47;1024869;28;20263;-75
2021/01/19 00:39:31;;;;;;;6.30;3.33;;;;;;;-2.37;95.17;96468.13;1024382;29;20034;-76
2021/01/19 00:40:02;;;;;;;5.10;2.80;;;;;;;-2.39;95.01;96472.69;1025373;28;20381;-75
2021/01/19 00:40:33;;;;;;;4.25;3.05;;;;;;;-2.36;95.04;96466.34;1028238;28;20326;-76
2021/01/19 00:41:04;;;;;;;4.25;2.60;;;;;;;-2.31;95.07;96474.38;1024783;28;20031;-74
2021/01/19 00:41:34;;;;;;;4.75;3.47;;;;;;;-2.25;95.21;96474.44;1024420;29;20026;-74
2021/01/19 00:42:05;;;;;;;5.28;3.40;;;;;;;-2.28;94.98;96469.66;1020666;29;20342;-76
2021/01/19 00:42:35;;;;;;;4.63;2.95;;;;;;;-2.30;94.82;96469.03;1024611;28;20027;-74
2021/01/19 00:43:06;;;;;;;4.43;2.90;;;;;;;-2.38;94.60;96452.75;1028577;28;20071;-74
2021/01/19 00:43:36;;;;;;;4.88;2.92;;;;;;;-2.37;94.89;96467.31;1028403;28;20577;-76
2021/01/19 00:44:07;;;;;;;3.47;2.63;;;;;;;-2.41;94.68;96467.69;1024374;29;20098;-74
2021/01/19 00:44:37;;;;;;;3.25;2.53;;;;;;;-2.41;94.74;96472.06;1024295;29;20027;-75
2021/01/19 00:45:08;;;;;;;4.20;2.55;;;;;;;-2.44;94.80;96469.81;1020551;28;20031;-76
2021/01/19 00:45:39;;;;;;;4.03;2.75;;;;;;;-2.48;94.51;96463.38;1028277;28;20081;-75
2021/01/19 00:46:09;;;;;;;5.15;2.88;;;;;;;-2.55;94.83;96465.91;1028301;28;20109;-75
2021/01/19 00:46:40;;;;;;;2.72;2.53;;;;;;;-2.53;94.89;96466.53;1024614;28;20034;-74
2021/01/19 00:47:10;;;;;;;3.17;2.13;;;;;;;-2.53;94.78;96470.91;1032298;28;20054;-74
2021/01/19 00:47:41;;;;;;;4.32;3.45;;;;;;;-2.58;95.06;96470.63;1028323;28;20502;-73
2021/01/19 00:48:11;;;;;;;5.93;2.70;;;;;;;-2.57;95.18;96478.22;1028469;28;20113;-76
2021/01/19 00:48:42;;;;;;;3.83;2.70;;;;;;;-2.53;95.06;96470.91;1032394;28;20025;-75
2021/01/19 00:49:13;;;;;;;5.00;3.25;;;;;;;-2.59;94.75;96475.00;1032307;28;20018;-75
2021/01/19 00:49:43;;;;;;;5.47;3.00;;;;;;;-2.65;95.06;96475.72;1036669;28;20261;-76
2021/01/19 00:50:14;;;;;;;4.07;2.60;;;;;;;-2.70;95.14;96481.41;1028382;28;20027;-75
2021/01/19 00:50:44;;;;;;;4.95;2.97;;;;;;;-2.71;95.55;96477.25;1024331;28;20817;-75
2021/01/19 00:51:15;;;;;;;3.67;2.90;;;;;;;-2.76;95.58;96482.13;1024299;29;20082;-74
2021/01/19 00:51:45;;;;;;;3.75;2.85;;;;;;;-2.75;95.54;96477.78;1024534;28;20033;-73
2021/01/19 00:52:16;;;;;;;3.72;2.63;;;;;;;-2.70;95.58;96483.22;1028464;28;20512;-73
2021/01/19 00:52:46;;;;;;;5.30;3.17;;;;;;;-2.73;95.49;96479.19;1032350;28;20014;-74
2021/01/19 00:53:17;;;;;;;4.00;3.00;;;;;;;-2.73;95.50;96486.97;1032457;28;20434;-75
2021/01/19 00:53:48;;;;;;;4.57;2.50;;;;;;;-2.79;95.52;96474.72;1032482;28;20011;-74
2021/01/19 00:54:20;;;;;;;4.05;2.95;;;;;;;-2.74;95.59;96475.00;1035880;28;20066;-74
2021/01/19 00:54:51;;;;;;;4.80;2.85;;;;;;;-2.85;95.30;96470.25;1036091;28;20810;-75
2021/01/19 00:55:22;;;;;;;4.05;2.60;;;;;;;-2.82;95.60;96473.28;1036731;28;20295;-74
2021/01/19 00:55:54;;;;;;;3.95;2.60;;;;;;;-2.82;95.54;96475.06;1032213;28;20146;-73
2021/01/19 00:56:39;;;;;;;4.43;3.17;;;;;;;-2.80;95.39;96473.13;1032330;28;20784;-75
2021/01/19 00:57:10;;;;;;;4.78;3.10;;;;;;;-2.85;95.32;96475.44;1032247;28;20258;-76
2021/01/19 00:57:43;;;;;;;3.60;2.70;;;;;;;-2.85;95.14;96472.84;1032443;28;20245;-73
2021/01/19 00:58:14;;;;;;;4.28;2.80;;;;;;;-2.88;95.50;96471.41;1032299;28;20579;-72
2021/01/19 00:58:44;;;;;;;3.65;2.70;;;;;;;-2.91;95.39;96471.78;1020808;29;20259;-75
2021/01/19 00:59:16;;;;;;;5.90;3.47;;;;;;;-2.95;95.64;96470.50;1020312;29;20772;-75
2021/01/19 00:59:47;;;;;;;4.55;3.00;;;;;;;-2.99;95.55;96471.84;1020448;29;20082;-74
2021/01/19 01:00:18;;;;;;;4.32;3.40;;;;;;;-3.03;95.43;96479.16;1016950;28;20276;-74
2021/01/19 01:00:48;;;;;;;4.35;2.83;;;;;;;-3.04;95.65;96472.34;1028709;28;20260;-74
2021/01/19 01:01:19;;;;;;;4.60;2.60;;;;;;;-3.05;95.69;96473.34;1032268;28;20463;-74
2021/01/19 01:01:49;;;;;;;4.53;3.67;;;;;;;-3.05;95.71;96470.75;1032428;28;20022;-74
2021/01/19 01:02:20;;;;;;;4.03;2.42;;;;;;;-3.13;95.38;96475.19;1027598;28;20458;-74
2021/01/19 01:02:50;;;;;;;3.17;2.67;;;;;;;-3.15;96.05;96470.22;1028296;28;20463;-76
2021/01/19 01:03:21;;;;;;;3.80;2.83;;;;;;;-3.06;96.17;96466.56;1028199;28;20117;-75
2021/01/19 01:03:51;;;;;;;5.88;3.20;;;;;;;-3.13;96.16;96476.03;1028430;28;20464;-74
2021/01/19 01:04:22;;;;;;;4.72;3.17;;;;;;;-3.16;96.09;96473.75;1036323;28;20053;-73
2021/01/19 01:04:52;;;;;;;3.50;2.65;;;;;;;-3.21;96.09;96470.88;1036691;28;20045;-71
2021/01/19 01:05:23;;;;;;;3.75;3.00;;;;;;;-3.21;96.31;96469.13;1036632;28;20025;-73
2021/01/19 01:05:53;;;;;;;5.90;3.42;;;;;;;-3.20;96.68;96468.13;1036613;28;20385;-73
2021/01/19 01:06:24;;;;;;;4.15;2.60;;;;;;;-3.17;95.95;96469.59;1032249;28;20088;-73
2021/01/19 01:06:54;;;;;;;4.43;3.13;;;;;;;-3.24;95.73;96466.88;1031864;28;20121;-72
2021/01/19 01:07:31;;;;;;;5.70;2.80;;;;;;;-3.25;95.93;96472.22;1032254;28;20022;-77
2021/01/19 01:08:02;;;;;;;5.38;3.15;;;;;;;-3.28;95.82;96472.56;1033351;28;20410;-73
2021/01/19 01:08:33;;;;;;;4.55;3.00;;;;;;;-3.32;95.47;96474.69;1036596;28;20725;-72
2021/01/19 01:09:03;;;;;;;4.72;2.95;;;;;;;-3.37;95.44;96471.03;1036544;28;20292;-73
2021/01/19 01:09:37;;;;;;;4.63;3.00;;;;;;;-3.50;95.05;96462.06;1036619;28;20437;-73
2021/01/19 01:10:17;;;;;;;3.47;2.83;;;;;;;-3.56;94.87;96462.75;1032195;28;20407;-72
2021/01/19 01:10:49;;;;;;;5.43;2.90;;;;;;;-3.60;95.37;96467.47;1024234;28;20255;-74
2021/01/19 01:11:19;;;;;;;3.72;3.03;;;;;;;-3.69;95.56;96468.50;1020207;29;20295;-73
2021/01/19 01:11:50;;;;;;;4.85;2.90;;;;;;;-3.66;96.01;96462.97;1022222;29;20274;-74
2021/01/19 01:12:20;;;;;;;5.28;2.85;;;;;;;-3.70;95.78;96472.06;1024958;28;20027;-75
2021/01/19 01:12:51;;;;;;;5.50;3.38;;;;;;;-3.76;96.13;96466.78;1028498;28;20018;-72
2021/01/19 01:13:21;;;;;;;4.03;3.33;;;;;;;-3.83;95.98;96469.22;1036486;28;20053;-72
2021/01/19 01:13:52;;;;;;;4.35;2.72;;;;;;;-3.85;96.00;96464.22;1036579;28;20037;-74
2021/01/19 01:14:22;;;;;;;4.63;2.75;;;;;;;-3.87;96.49;96468.75;1036622;28;20029;-73
2021/01/19 01:14:53;;;;;;;5.68;2.90;;;;;;;-3.95;96.40;96468.81;1036607;28;20092;-73
2021/01/19 01:15:31;;;;;;;4.15;3.17;;;;;;;-3.97;96.82;96467.38;1036194;28;20117;-73
2021/01/19 01:16:02;;;;;;;4.63;2.78;;;;;;;-3.99;96.99;96463.16;1028159;28;20023;-72
2021/01/19 01:16:35;;;;;;;6.53;3.17;;;;;;;-3.99;97.21;96462.38;1023782;29;20278;-74
2021/01/19 01:17:05;;;;;;;3.72;2.95;;;;;;;-3.98;97.50;96469.16;1024259;29;20286;-71
2021/01/19 01:17:39;;;;;;;5.53;3.10;;;;;;;-3.98;97.59;96469.16;1024863;28;20623;-73
2021/01/19 01:18:13;;;;;;;4.00;3.10;;;;;;;-4.01;97.51;96461.75;1025059;28;20043;-72
2021/01/19 01:18:44;;;;;;;4.40;3.20;;;;;;;-4.03;97.53;96472.25;1024102;29;20291;-72
2021/01/19 01:19:14;;;;;;;3.65;3.00;;;;;;;-4.01;97.73;96472.06;1020195;29;20248;-74
2021/01/19 01:19:45;;;;;;;5.75;3.25;;;;;;;-4.00;97.78;96477.09;1016710;29;20080;-75
2021/01/19 01:20:15;;;;;;;4.18;2.67;;;;;;;-4.01;97.66;96470.28;1020247;29;20091;-75
2021/01/19 01:20:46;;;;;;;4.05;3.25;;;;;;;-4.00;97.89;96471.91;1024246;28;20548;-72
2021/01/19 01:21:16;;;;;;;4.95;3.58;;;;;;;-4.00;97.72;96473.69;1028331;28;20034;-75
2021/01/19 01:21:47;;;;;;;4.00;3.17;;;;;;;-4.04;97.85;96465.47;1032483;28;20411;-75
2021/01/19 01:22:17;;;;;;;3.95;3.20;;;;;;;-3.99;97.91;96467.53;1024196;29;20023;-72
2021/01/19 01:22:48;;;;;;;4.50;3.08;;;;;;;-4.03;97.65;96467.06;1024252;29;20158;-77
2021/01/19 01:23:18;;;;;;;3.63;3.10;;;;;;;-4.08;97.57;96473.75;1024223;29;20415;-74
2021/01/19 01:23:49;;;;;;;5.55;3.60;;;;;;;-4.10;97.77;96471.31;1020469;28;20031;-74
2021/01/19 01:24:20;;;;;;;5.00;3.28;;;;;;;-4.09;98.08;96472.13;1028226;28;20023;-72
2021/01/19 01:24:51;;;;;;;6.00;3.45;;;;;;;-4.11;97.74;96471.50;1028199;28;20439;-74
2021/01/19 01:25:21;;;;;;;5.47;3.22;;;;;;;-4.13;97.98;96473.44;1028414;28;20278;-73
2021/01/19 01:25:52;;;;;;;5.18;3.60;;;;;;;-4.10;98.20;96470.50;1032529;28;20379;-73
2021/01/19 01:26:23;;;;;;;6.13;3.63;;;;;;;-4.11;98.23;96469.69;1024265;29;20027;-74
2021/01/19 01:26:54;;;;;;;5.45;3.10;;;;;;;-4.15;98.07;96473.59;1024187;29;20492;-74
2021/01/19 01:27:27;;;;;;;5.45;3.75;;;;;;;-4.14;98.21;96471.81;1020157;29;20248;-74
2021/01/19 01:27:58;;;;;;;4.45;3.30;;;;;;;-4.11;98.36;96467.13;1021412;28;20032;-71
2021/01/19 01:28:30;;;;;;;4.00;3.20;;;;;;;-4.07;98.69;96472.75;1024171;29;20270;-76
2021/01/19 01:29:01;;;;;;;4.32;3.10;;;;;;;-4.10;98.40;96461.00;1024811;28;20023;-73
2021/01/19 01:29:31;;;;;;;4.18;2.80;;;;;;;-4.12;98.29;96468.09;1028250;28;20281;-73
2021/01/19 01:30:03;;;;;;;5.75;3.42;;;;;;;-4.11;98.29;96471.50;1028246;28;20288;-73
2021/01/19 01:30:34;;;;;;;4.55;3.90;;;;;;;-4.16;98.04;96468.59;1032427;28;20033;-74
2021/01/19 01:31:04;;;;;;;5.70;3.88;;;;;;;-4.24;97.82;96462.50;1032506;28;20359;-72
2021/01/19 01:31:35;;;;;;;6.60;3.50;;;;;;;-4.22;98.11;96468.31;1032518;28;20081;-75
2021/01/19 01:32:05;;;;;;;7.47;4.20;;;;;;;-4.25;98.10;96467.84;1032574;28;20064;-73
2021/01/19 01:32:40;;;;;;;6.05;4.15;;;;;;;-4.24;98.70;96474.59;1032477;28;20102;-72
2021/01/19 01:33:10;;;;;;;5.53;3.53;;;;;;;-4.29;98.74;96469.94;1032433;28;20025;-73
2021/01/19 01:33:40;;;;;;;6.05;4.32;;;;;;;-4.30;98.78;96470.09;1028089;28;20273;-78
2021/01/19 01:34:11;;;;;;;6.68;4.15;;;;;;;-4.26;98.59;96464.47;1028223;28;20037;-72
2021/01/19 01:34:41;;;;;;;5.82;3.70;;;;;;;-4.30;98.53;96468.34;1023927;29;20510;-75
2021/01/19 01:35:12;;;;;;;5.70;4.22;;;;;;;-4.34;98.74;96474.00;1024219;28;20043;-74
2021/01/19 01:35:43;;;;;;;7.88;4.70;;;;;;;-4.32;99.34;96459.97;1024027;29;20023;-75
2021/01/19 01:36:13;;;;;;;6.25;4.20;;;;;;;-4.30;99.26;96464.94;1020328;29;20036;-72
2021/01/19 01:36:44;;;;;;;5.38;4.28;;;;;;;-4.29;99.57;96466.56;1023716;29;20496;-73
2021/01/19 01:37:14;;;;;;;5.03;3.72;;;;;;;-4.26;99.50;96466.22;1024258;28;20034;-72
2021/01/19 01:37:48;;;;;;;6.82;4.15;;;;;;;-4.25;99.61;96463.47;1028084;28;20403;-72
2021/01/19 01:38:19;;;;;;;5.78;4.15;;;;;;;-4.23;99.36;96466.69;1024178;29;20404;-72
2021/01/19 01:38:49;;;;;;;5.70;3.80;;;;;;;-4.25;99.17;96463.47;1024154;29;20307;-72
2021/01/19 01:39:20;;;;;;;7.50;4.25;;;;;;;-4.20;99.36;96465.56;1024150;29;20106;-75
2021/01/19 01:39:50;;;;;;;5.75;4.00;;;;;;;-4.16;99.47;96468.59;1024672;28;20595;-72
2021/01/19 01:40:22;;;;;;;5.00;4.28;;;;;;;-4.21;99.17;96464.75;1032462;28;20034;-71
2021/01/19 01:40:53;;;;;;;6.07;4.70;;;;;;;-3.99;99.97;96470.94;1032479;28;20043;-72
2021/01/19 01:41:24;;;;;;;7.38;4.70;;;;;;;-4.00;99.76;96474.50;1032415;28;20297;-72
2021/01/19 01:41:54;;;;;;;6.15;4.50;;;;;;;-3.96;100.00;96467.22;1032337;28;20479;-76
2021/01/19 01:42:25;;;;;;;5.50;4.50;;;;;;;-3.92;100.00;96462.50;1032488;28;20029;-75
2021/01/19 01:42:56;;;;;;;6.07;4.60;;;;;;;-3.85;99.68;96466.81;1028155;28;20058;-72
2021/01/19 01:43:27;;;;;;;7.32;4.35;;;;;;;-3.87;99.65;96466.19;1028161;28;20061;-71
2021/01/19 01:43:57;;;;;;;5.45;4.30;;;;;;;-3.95;99.34;96468.00;1028122;28;20277;-72
2021/01/19 01:44:28;;;;;;;6.47;4.45;;;;;;;-3.97;99.38;96470.75;1024375;28;20436;-75
2021/01/19 01:44:58;;;;;;;6.18;4.43;;;;;;;-4.08;98.54;96469.38;1027837;28;20040;-73
2021/01/19 01:45:29;;;;;;;5.30;4.80;;;;;;;-4.05;99.24;96469.03;1027934;28;20037;-75
2021/01/19 01:45:59;;;;;;;5.82;4.70;;;;;;;-4.08;99.03;96473.75;1024190;28;20027;-75
2021/01/19 01:46:34;;;;;;;5.95;4.43;;;;;;;-4.07;99.42;96470.97;1020087;29;20031;-73
2021/01/19 01:47:04;;;;;;;6.55;4.25;;;;;;;-4.10;99.07;96471.31;1020202;29;20062;-76
2021/01/19 01:47:35;;;;;;;6.75;4.47;;;;;;;-4.12;99.08;96464.69;1016877;29;20283;-73
2021/01/19 01:48:07;;;;;;;6.45;4.07;;;;;;;-4.06;99.48;96476.97;1016889;29;20028;-74
2021/01/19 01:48:42;;;;;;;6.18;4.78;;;;;;;-4.09;99.29;96469.53;1020158;29;20106;-77
2021/01/19 01:49:12;;;;;;;6.18;5.05;;;;;;;-4.12;99.23;96468.09;1023733;29;20391;-76
2021/01/19 01:49:43;;;;;;;7.15;4.70;;;;;;;-4.08;99.46;96461.63;1024858;28;20337;-74
2021/01/19 01:50:13;;;;;;;5.97;4.65;;;;;;;-4.05;99.40;96458.69;1028140;28;20034;-73
2021/01/19 01:50:44;;;;;;;6.50;4.45;;;;;;;-3.98;99.44;96469.16;1024262;28;20063;-73
2021/01/19 01:51:14;;;;;;;8.50;5.40;;;;;;;-4.08;99.23;96463.41;1024183;29;20027;-76
2021/01/19 01:51:45;;;;;;;7.90;4.75;;;;;;;-4.09;99.37;96457.41;1024090;29;20027;-73
2021/01/19 01:52:16;;;;;;;6.85;4.10;;;;;;;-4.07;99.55;96459.84;1024152;28;20127;-71
2021/01/19 01:52:47;;;;;;;7.68;5.07;;;;;;;-4.02;99.39;96465.31;1020045;29;20028;-73
2021/01/19 01:53:17;;;;;;;7.10;4.55;;;;;;;-4.04;99.17;96464.69;1020089;29;20283;-72
2021/01/19 01:53:48;;;;;;;8.52;4.57;;;;;;;-3.99;99.58;96464.97;1020308;29;20376;-72
2021/01/19 01:54:19;;;;;;;7.63;4.75;;;;;;;-4.04;99.50;96465.47;1020318;28;20055;-73
2021/01/19 01:54:49;;;;;;;5.45;4.53;;;;;;;-4.16;99.14;96455.66;1020037;29;20334;-75
2021/01/19 01:55:20;;;;;;;8.10;4.00;;;;;;;-4.11;99.10;96463.75;1016283;29;20024;-73
2021/01/19 01:55:50;;;;;;;7.15;4.68;;;;;;;-4.19;99.03;96462.00;1012291;29;20028;-74
2021/01/19 01:56:21;;;;;;;8.43;4.70;;;;;;;-4.15;99.00;96459.88;1016199;29;20043;-74
2021/01/19 01:56:51;;;;;;;8.98;5.38;;;;;;;-4.16;99.49;96466.00;1012474;29;20021;-73
2021/01/19 01:57:22;;;;;;;6.85;4.95;;;;;;;-4.20;99.70;96460.41;1012423;29;20406;-74
2021/01/19 01:57:53;;;;;;;9.27;5.07;;;;;;;-4.20;99.70;96461.19;1020305;29;20405;-75
2021/01/19 01:58:23;;;;;;;5.20;4.70;;;;;;;-4.27;99.92;96470.59;1024306;28;20130;-74
2021/01/19 01:58:54;;;;;;;7.85;4.90;;;;;;;-4.24;99.97;96465.09;1024307;28;20019;-72
2021/01/19 01:59:24;;;;;;;8.07;4.47;;;;;;;-4.24;100.00;96461.69;1028214;28;20099;-72
2021/01/19 01:59:59;;;;;;;7.40;4.93;;;;;;;-4.24;99.84;96457.34;1024100;29;20027;-72
2021/01/19 02:00:29;;;;;;;6.60;4.95;;;;;;;-4.28;100.00;96460.41;1020723;29;20168;-74
2021/01/19 02:01:00;;;;;;;7.93;5.30;;;;;;;-4.29;99.76;96464.78;1024142;29;20664;-72
2021/01/19 02:01:30;;;;;;;6.07;4.55;;;;;;;-4.43;99.88;96453.38;1024762;28;20511;-72
2021/01/19 02:02:08;;;;;;;6.30;4.30;;;;;;;-4.42;99.60;96446.41;1028217;28;20026;-74
2021/01/19 02:02:52;;;;;;;6.93;4.78;;;;;;;-4.47;99.81;96446.13;1028150;28;20061;-73
2021/01/19 02:03:22;;;;;;;5.15;3.85;;;;;;;-4.43;100.00;96450.00;1028004;28;20787;-73
2021/01/19 02:03:53;;;;;;;6.55;5.10;;;;;;;-4.46;99.99;96453.72;1028132;28;20258;-74
2021/01/19 02:04:24;;;;;;;8.52;5.18;;;;;;;-4.49;100.00;96448.06;1030128;28;20018;-78
2021/01/19 02:04:54;;;;;;;6.10;4.47;;;;;;;-4.49;100.00;96448.06;1032150;28;20593;-74
2021/01/19 02:05:25;;;;;;;6.32;4.70;;;;;;;-4.48;100.00;96447.91;1032455;28;20023;-72
2021/01/19 02:05:56;;;;;;;7.07;4.45;;;;;;;-4.50;100.00;96454.19;1028018;28;20109;-72
2021/01/19 02:06:27;;;;;;;8.05;4.85;;;;;;;-4.52;100.00;96451.81;1023611;29;20068;-72
2021/01/19 02:06:57;;;;;;;8.13;4.50;;;;;;;-4.52;100.00;96446.66;1019983;29;20024;-74
2021/01/19 02:07:41;;;;;;;6.70;5.30;;;;;;;-4.52;100.00;96441.47;1012391;29;20454;-73
2021/01/19 02:08:15;;;;;;;8.18;4.88;;;;;;;-4.52;100.00;96445.81;1016240;29;20032;-73
2021/01/19 02:09:18;;;;;;;6.03;4.63;;;;;;;-4.54;100.00;96447.75;1020006;29;20264;-76
2021/01/19 02:09:56;;;;;;;6.97;4.85;;;;;;;-4.48;100.00;96439.34;1017742;28;20269;-71
2021/01/19 02:10:32;;;;;;;5.68;4.63;;;;;;;-4.38;100.00;96447.69;1027981;28;20281;-71
2021/01/19 02:11:23;;;;;;;6.40;4.47;;;;;;;-4.20;100.00;96443.09;1024089;29;20328;-72
2021/01/19 02:11:56;;;;;;;6.22;4.47;;;;;;;-4.12;100.00;96446.59;1019870;29;20267;-74
2021/01/19 02:12:29;;;;;;;6.05;4.95;;;;;;;-4.02;100.00;96444.63;1027685;28;20265;-74
2021/01/19 02:13:49;;;;;;;6.68;4.10;;;;;;;-3.90;100.00;96445.06;1024038;29;20266;-78
2021/01/19 02:14:27;;;;;;;8.27;4.40;;;;;;;-3.83;100.00;96446.75;1012131;29;20340;-75
2021/01/19 02:15:00;;;;;;;5.95;4.50;;;;;;;-3.81;99.80;96441.41;1015245;28;20043;-73
2021/01/19 02:15:45;;;;;;;5.60;4.28;;;;;;;-3.74;99.51;96436.38;1027970;28;20277;-74
2021/01/19 02:16:31;;;;;;;5.60;4.47;;;;;;;-3.64;99.40;96434.38;1020144;29;20267;-74
2021/01/19 02:17:32;;;;;;;6.28;4.57;;;;;;;-3.69;98.95;96432.28;1020234;29;20291;-72
2021/01/19 02:18:11;;;;;;;7.13;4.32;;;;;;;-3.59;99.11;96432.06;1027124;28;20773;-74
2021/01/19 02:18:55;;;;;;;7.13;3.97;;;;;;;-3.54;99.04;96427.16;1024022;29;20279;-72
2021/01/19 02:20:10;;;;;;;5.88;4.38;;;;;;;-3.43;98.59;96420.75;1025354;28;20039;-71
2021/01/19 02:21:10;;;;;;;7.88;4.55;;;;;;;-3.38;98.06;96421.06;1027529;28;20849;-71
2021/01/19 02:22:03;;;;;;;;;;;;;;;-3.40;98.17;96418.63;1028415;28;20277;-73
2021/01/19 02:23:05;;;;;;;7.35;4.47;;;;;;;-3.37;98.31;96424.44;1026632;28;19961;-75
2021/01/19 02:24:00;;;;;;;6.13;4.38;;;;;;;-3.24;97.77;96422.88;1031103;28;20269;-73
2021/01/19 02:24:53;;;;;;;6.68;4.10;;;;;;;-3.23;97.39;96421.06;1028012;28;20277;-72
2021/01/19 02:26:02;;;;;;;6.50;4.20;;;;;;;-3.18;97.52;96420.56;1019324;28;20260;-73
2021/01/19 02:26:58;;;;;;;5.75;3.92;;;;;;;-3.07;97.01;96428.72;1027130;28;20313;-73
2021/01/19 02:27:47;;;;;;;6.80;3.78;;;;;;;-3.06;97.11;96422.53;1023978;29;20269;-72
2021/01/19 02:28:28;;;;;;;6.15;4.28;;;;;;;-2.95;96.18;96412.72;1025741;28;20265;-74
2021/01/19 02:29:05;;;;;;;4.90;3.92;;;;;;;-2.94;95.95;96422.13;1020460;29;20271;-71
2021/01/19 02:29:54;;;;;;;5.93;4.30;;;;;;;-2.88;96.03;96419.59;1024042;29;20258;-74
2021/01/19 02:30:41;;;;;;;5.93;3.65;;;;;;;-2.87;95.96;96420.44;1028014;28;20297;-75
2021/01/19 02:31:42;;;;;;;7.10;4.20;;;;;;;-2.86;95.52;96428.00;1024321;28;20106;-72
2021/01/19 02:32:33;;;;;;;7.13;4.15;;;;;;;-2.86;95.67;96416.84;1017960;29;20327;-74
2021/01/19 02:33:16;;;;;;;5.65;4.07;;;;;;;-2.80;95.25;96429.88;1019902;29;20307;-72
2021/01/19 02:34:07;;;;;;;6.35;3.65;;;;;;;-2.73;95.04;96427.41;1016471;29;20278;-73
2021/01/19 02:34:48;;;;;;;6.22;4.22;;;;;;;-2.65;94.57;96432.47;1018865;29;20311;-75
2021/01/19 02:35:29;;;;;;;6.13;4.32;;;;;;;-2.67;94.28;96426.69;1021621;28;20268;-72
2021/01/19 02:36:16;;;;;;;7.10;4.32;;;;;;;-2.66;94.44;96432.66;1027945;28;20258;-77
2021/01/19 02:36:56;;;;;;;6.25;3.90;;;;;;;-2.61;94.23;96431.13;1031940;28;20772;-72